createdAt,value
2023-04-28T00:00:02.168Z,8.53
2023-04-28T00:02:29.702Z,6.93
2023-04-28T00:04:59.081Z,11.20
2023-04-28T00:07:26.784Z,8.13
2023-04-28T00:09:54.269Z,12.73
2023-04-28T00:12:21.721Z,9.03
2023-04-28T00:14:49.190Z,10.73
2023-04-28T00:17:17.166Z,10.73
2023-04-28T00:19:44.960Z,7.60
2023-04-28T00:22:15.101Z,11.03
2023-04-28T00:24:42.794Z,9.73
2023-04-28T00:27:10.312Z,8.55
2023-04-28T00:29:37.815Z,9.07
2023-04-28T00:32:05.498Z,7.53
2023-04-28T00:34:34.208Z,7.18
2023-04-28T00:37:01.690Z,8.50
2023-04-28T00:39:30.619Z,7.15
2023-04-28T00:41:58.166Z,8.85
2023-04-28T00:44:25.618Z,9.65
2023-04-28T00:46:53.162Z,7.90
2023-04-28T00:49:20.963Z,7.93
2023-04-28T00:51:48.455Z,8.33
2023-04-28T00:54:16.129Z,9.93
2023-04-28T00:56:45.642Z,9.10
2023-04-28T00:59:13.102Z,8.40
2023-04-28T01:01:40.659Z,7.37
2023-04-28T01:04:08.522Z,6.72
2023-04-28T01:06:38.166Z,8.10
2023-04-28T01:09:06.267Z,7.53
2023-04-28T01:11:33.786Z,7.63
2023-04-28T01:14:02.560Z,7.20
2023-04-28T01:16:32.478Z,7.23
2023-04-28T01:19:01.409Z,7.67
2023-04-28T01:21:30.362Z,10.30
2023-04-28T01:23:59.245Z,7.43
2023-04-28T01:26:27.223Z,9.20
2023-04-28T01:28:54.754Z,9.43
2023-04-28T01:31:22.295Z,10.07
2023-04-28T01:33:49.790Z,7.90
2023-04-28T01:36:17.259Z,6.90
2023-04-28T01:38:44.739Z,6.73
2023-04-28T01:41:13.574Z,8.37
2023-04-28T01:43:41.040Z,6.47
2023-04-28T01:46:08.567Z,8.32
2023-04-28T01:48:36.170Z,7.27
2023-04-28T01:51:03.710Z,7.22
2023-04-28T01:53:31.201Z,8.33
2023-04-28T01:55:59.203Z,7.40
2023-04-28T01:58:28.011Z,6.45
2023-04-28T02:00:55.480Z,6.37
2023-04-28T02:03:22.992Z,8.95
2023-04-28T02:05:50.730Z,7.27
2023-04-28T02:08:18.434Z,9.80
2023-04-28T02:10:45.984Z,6.40
2023-04-28T02:13:13.511Z,8.13
2023-04-28T02:15:43.380Z,6.05
2023-04-28T02:18:11.054Z,6.90
2023-04-28T02:20:38.569Z,7.43
2023-04-28T02:23:06.143Z,8.07
2023-04-28T02:25:33.676Z,8.97
2023-04-28T02:28:01.142Z,8.53
2023-04-28T02:30:28.663Z,7.28
2023-04-28T02:32:57.508Z,8.83
2023-04-28T02:35:25.046Z,6.83
2023-04-28T02:37:52.629Z,12.50
2023-04-28T02:40:20.591Z,8.53
2023-04-28T02:42:48.113Z,6.83
2023-04-28T02:45:15.785Z,6.40
2023-04-28T02:47:43.286Z,7.93
2023-04-28T02:50:12.348Z,8.97
2023-04-28T02:52:39.815Z,7.33
2023-04-28T02:55:08.122Z,7.67
2023-04-28T02:57:35.593Z,8.27
2023-04-28T03:00:03.142Z,7.47
2023-04-28T03:02:31.257Z,7.03
2023-04-28T03:04:58.921Z,8.37
2023-04-28T03:07:27.857Z,9.37
2023-04-28T03:09:55.433Z,10.10
2023-04-28T03:12:22.933Z,11.13
2023-04-28T03:14:50.392Z,6.90
2023-04-28T03:17:18.084Z,6.13
2023-04-28T03:19:45.540Z,6.60
2023-04-28T03:22:13.013Z,6.77
2023-04-28T03:24:41.805Z,6.10
2023-04-28T03:27:09.257Z,6.83
2023-04-28T03:29:36.727Z,7.97
2023-04-28T03:32:04.187Z,10.80
2023-04-28T03:34:31.723Z,8.97
2023-04-28T03:36:59.294Z,7.13
2023-04-28T03:39:26.762Z,7.37
2023-04-28T03:41:55.630Z,5.87
2023-04-28T03:44:23.455Z,6.23
2023-04-28T03:46:51.083Z,5.87
2023-04-28T03:49:18.539Z,6.07
2023-04-28T03:51:46.640Z,6.67
2023-04-28T03:54:14.274Z,6.00
2023-04-28T03:56:41.906Z,6.60
2023-04-28T03:59:11.718Z,6.43
2023-04-28T04:01:39.173Z,7.07
2023-04-28T04:04:07.098Z,6.57
2023-04-28T04:06:34.891Z,5.77
2023-04-28T04:09:02.702Z,5.53
2023-04-28T04:11:30.164Z,7.18
2023-04-28T04:13:57.605Z,6.70
2023-04-28T04:16:26.808Z,6.05
2023-04-28T04:18:54.462Z,6.00
2023-04-28T04:21:22.040Z,6.43
2023-04-28T04:23:49.526Z,6.47
2023-04-28T04:26:16.996Z,5.10
2023-04-28T04:28:44.481Z,5.20
2023-04-28T04:31:12.375Z,4.93
2023-04-28T04:33:41.233Z,6.57
2023-04-28T04:36:09.146Z,7.63
2023-04-28T04:38:36.628Z,4.90
2023-04-28T04:41:04.128Z,6.27
2023-04-28T04:43:31.592Z,4.97
2023-04-28T04:45:59.288Z,5.83
2023-04-28T04:48:26.776Z,8.25
2023-04-28T04:50:55.573Z,5.22
2023-04-28T04:53:23.168Z,5.57
2023-04-28T04:55:50.678Z,5.25
2023-04-28T04:58:18.300Z,5.72
2023-04-28T05:00:45.798Z,5.73
2023-04-28T05:03:13.525Z,6.13
2023-04-28T05:05:41.365Z,7.35
2023-04-28T05:08:10.534Z,6.30
2023-04-28T05:10:38.093Z,5.47
2023-04-28T05:13:05.676Z,6.05
2023-04-28T05:15:33.539Z,6.47
2023-04-28T05:18:01.198Z,6.97
2023-04-28T05:20:28.681Z,8.18
2023-04-28T05:22:56.111Z,7.03
2023-04-28T05:25:24.893Z,6.43
2023-04-28T05:27:52.381Z,6.68
2023-04-28T05:30:19.978Z,8.93
2023-04-28T05:32:47.495Z,6.28
2023-04-28T05:35:15.197Z,6.93
2023-04-28T05:37:43.555Z,5.25
2023-04-28T05:40:11.777Z,4.72
2023-04-28T05:42:40.629Z,7.35
2023-04-28T05:45:09.352Z,7.40
2023-04-28T05:47:36.956Z,7.15
2023-04-28T05:50:04.762Z,7.65
2023-04-28T05:52:32.218Z,7.13
2023-04-28T05:54:59.680Z,7.40
2023-04-28T05:57:27.310Z,6.53
2023-04-28T05:59:56.160Z,7.88
2023-04-28T06:02:24.537Z,6.15
2023-04-28T06:04:53.335Z,5.80
2023-04-28T06:07:21.513Z,11.02
2023-04-28T06:09:49.773Z,5.60
2023-04-28T06:12:17.230Z,6.45
2023-04-28T06:14:44.680Z,12.23
2023-04-28T06:17:13.494Z,6.25
2023-04-28T06:19:40.935Z,5.47
2023-04-28T06:22:08.390Z,6.85
2023-04-28T06:24:35.898Z,5.15
2023-04-28T06:27:03.668Z,5.85
2023-04-28T06:29:31.121Z,5.70
2023-04-28T06:31:58.848Z,5.65
2023-04-28T06:34:28.882Z,6.85
2023-04-28T06:36:56.608Z,7.40
2023-04-28T06:39:24.065Z,7.53
2023-04-28T06:41:51.530Z,6.43
2023-04-28T06:44:19.238Z,6.45
2023-04-28T06:46:46.956Z,6.57
2023-04-28T06:49:14.459Z,6.32
2023-04-28T06:51:43.260Z,8.82
2023-04-28T06:54:11.589Z,11.80
2023-04-28T06:56:39.134Z,8.20
2023-04-28T06:59:07.182Z,7.93
2023-04-28T07:01:34.642Z,9.63
2023-04-28T07:04:02.250Z,7.78
2023-04-28T07:06:31.707Z,6.40
2023-04-28T07:09:00.562Z,7.30
2023-04-28T07:11:28.146Z,6.65
2023-04-28T07:13:55.599Z,7.90
2023-04-28T07:16:23.116Z,6.43
2023-04-28T07:18:50.744Z,7.68
2023-04-28T07:21:18.216Z,7.68
2023-04-28T07:23:45.970Z,8.10
2023-04-28T07:26:16.343Z,7.32
2023-04-28T07:28:44.822Z,7.30
2023-04-28T07:31:12.394Z,8.23
2023-04-28T07:33:40.062Z,7.03
2023-04-28T07:36:08.225Z,8.18
2023-04-28T07:38:36.459Z,10.43
2023-04-28T07:41:05.748Z,8.52
2023-04-28T07:43:36.364Z,9.27
2023-04-28T07:46:03.921Z,8.43
2023-04-28T07:48:32.399Z,8.77
2023-04-28T07:50:59.876Z,8.82
2023-04-28T07:53:27.656Z,9.90
2023-04-28T07:55:55.480Z,12.60
2023-04-28T07:58:22.996Z,10.55
2023-04-28T08:00:51.786Z,11.07
2023-04-28T08:03:19.439Z,10.48
2023-04-28T08:05:47.247Z,10.10
2023-04-28T08:08:14.786Z,9.30
2023-04-28T08:10:43.751Z,9.97
2023-04-28T08:13:11.211Z,9.70
2023-04-28T08:15:38.739Z,10.90
2023-04-28T08:18:08.407Z,10.63
2023-04-28T08:20:36.065Z,9.63
2023-04-28T08:23:03.523Z,13.05
2023-04-28T08:25:31.008Z,10.05
2023-04-28T08:27:58.689Z,11.23
2023-04-28T08:30:26.204Z,10.43
2023-04-28T08:32:54.093Z,9.02
2023-04-28T08:35:23.042Z,18.02
2023-04-28T08:37:50.723Z,11.73
2023-04-28T08:40:18.348Z,10.90
2023-04-28T08:42:46.225Z,9.52
2023-04-28T08:45:15.628Z,10.35
2023-04-28T08:47:45.991Z,9.63
2023-04-28T08:50:14.678Z,11.13
2023-04-28T08:52:43.691Z,12.60
2023-04-28T08:55:13.759Z,10.80
2023-04-28T08:57:45.447Z,10.68
2023-04-28T09:00:13.816Z,11.75
2023-04-28T09:02:42.949Z,13.68
2023-04-28T09:05:11.930Z,12.55
2023-04-28T09:07:39.781Z,11.75
2023-04-28T09:10:27.466Z,11.65
2023-04-28T09:12:57.379Z,11.52
2023-04-28T09:15:31.831Z,9.98
2023-04-28T09:18:02.337Z,13.02
2023-04-28T09:20:31.445Z,12.32
2023-04-28T09:23:14.308Z,12.77
2023-04-28T09:25:57.012Z,11.65
2023-04-28T09:28:24.727Z,12.82
2023-04-28T09:30:52.388Z,12.73
2023-04-28T09:33:20.887Z,11.63
2023-04-28T09:35:48.928Z,14.15
2023-04-28T09:38:16.875Z,11.70
2023-04-28T09:40:53.383Z,12.38
2023-04-28T09:43:28.996Z,15.85
2023-04-28T09:45:57.750Z,13.38
2023-04-28T09:48:33.750Z,15.48
2023-04-28T09:51:02.888Z,11.85
2023-04-28T09:53:31.461Z,12.43
2023-04-28T09:56:02.391Z,16.65
2023-04-28T09:58:30.679Z,13.52
2023-04-28T10:00:59.728Z,13.55
2023-04-28T10:03:29.860Z,12.18
2023-04-28T10:05:58.855Z,13.13
2023-04-28T10:08:28.067Z,13.65
2023-04-28T10:10:56.926Z,13.02
2023-04-28T10:13:26.491Z,16.20
2023-04-28T10:15:55.357Z,13.23
2023-04-28T10:18:24.469Z,14.57
2023-04-28T10:20:57.489Z,13.18
2023-04-28T10:24:09.209Z,13.38
2023-04-28T10:27:09.215Z,15.27
2023-04-28T10:29:38.276Z,14.27
2023-04-28T10:32:26.061Z,14.90
2023-04-28T10:35:14.984Z,15.85
2023-04-28T10:38:06.189Z,14.25
2023-04-28T10:40:34.644Z,14.07
2023-04-28T10:43:02.838Z,14.57
2023-04-28T10:46:02.748Z,15.55
2023-04-28T10:49:03.310Z,14.82
2023-04-28T10:51:31.901Z,14.88
2023-04-28T10:54:11.131Z,16.10
2023-04-28T10:56:39.982Z,19.88
2023-04-28T10:59:28.128Z,16.85
2023-04-28T11:01:55.700Z,18.20
2023-04-28T11:04:24.437Z,13.80
2023-04-28T11:07:10.524Z,16.08
2023-04-28T11:09:53.123Z,14.73
2023-04-28T11:12:20.593Z,15.35
2023-04-28T11:14:48.066Z,14.32
2023-04-28T11:17:18.607Z,14.23
2023-04-28T11:19:48.601Z,14.52
2023-04-28T11:22:21.140Z,15.77
2023-04-28T11:25:00.798Z,15.07
2023-04-28T11:27:29.903Z,14.80
2023-04-28T11:29:57.527Z,14.30
2023-04-28T11:32:29.292Z,14.27
2023-04-28T11:34:56.921Z,14.48
2023-04-28T11:37:24.401Z,14.50
2023-04-28T11:39:51.916Z,14.32
2023-04-28T11:42:20.753Z,14.35
2023-04-28T11:44:53.113Z,13.88
2023-04-28T11:47:31.079Z,14.80
2023-04-28T11:49:58.824Z,14.95
2023-04-28T11:52:27.388Z,14.15
2023-04-28T11:54:56.521Z,15.02
2023-04-28T11:57:25.792Z,15.02
2023-04-28T11:59:53.438Z,15.18
2023-04-28T12:02:29.117Z,14.95
2023-04-28T12:04:57.530Z,15.10
2023-04-28T12:07:25.134Z,14.98
2023-04-28T12:10:11.728Z,16.25
2023-04-28T12:12:51.083Z,16.33
2023-04-28T12:15:21.857Z,16.63
2023-04-28T12:17:50.732Z,16.02
2023-04-28T12:20:37.528Z,16.42
2023-04-28T12:23:05.571Z,16.08
2023-04-28T12:25:33.958Z,16.00
2023-04-28T12:28:04.530Z,15.50
2023-04-28T12:30:33.780Z,14.27
2023-04-28T12:33:01.720Z,15.65
2023-04-28T12:35:30.214Z,14.13
2023-04-28T12:37:58.493Z,14.50
2023-04-28T12:40:26.085Z,13.10
2023-04-28T12:42:53.707Z,13.35
2023-04-28T12:45:22.469Z,13.93
2023-04-28T12:47:49.989Z,13.30
2023-04-28T12:50:17.484Z,11.95
2023-04-28T12:52:44.949Z,11.82
2023-04-28T12:55:12.400Z,10.88
2023-04-28T12:57:39.966Z,13.60
2023-04-28T13:00:09.300Z,11.55
2023-04-28T13:02:38.265Z,11.98
2023-04-28T13:05:07.230Z,12.35
2023-04-28T13:07:35.062Z,11.68
2023-04-28T13:10:02.575Z,12.88
2023-04-28T13:12:30.077Z,13.18
2023-04-28T13:14:57.565Z,11.80
2023-04-28T13:17:25.108Z,12.25
2023-04-28T13:19:54.193Z,12.25
2023-04-28T13:22:21.916Z,12.88
2023-04-28T13:24:49.401Z,13.35
2023-04-28T13:27:16.848Z,12.45
2023-04-28T13:29:44.281Z,11.98
2023-04-28T13:32:11.807Z,11.77
2023-04-28T13:34:39.939Z,11.82
2023-04-28T13:37:08.758Z,11.85
2023-04-28T13:39:36.202Z,14.15
2023-04-28T13:42:03.792Z,12.32
2023-04-28T13:44:31.319Z,13.07
2023-04-28T13:46:59.251Z,12.65
2023-04-28T13:49:26.699Z,12.85
2023-04-28T13:51:54.179Z,13.18
2023-04-28T13:54:23.028Z,12.88
2023-04-28T13:56:50.656Z,12.73
2023-04-28T13:59:19.211Z,12.45
2023-04-28T14:01:46.695Z,12.10
2023-04-28T14:04:14.446Z,11.93
2023-04-28T14:06:42.178Z,11.80
2023-04-28T14:09:09.806Z,12.25
2023-04-28T14:11:38.600Z,11.48
2023-04-28T14:14:06.254Z,12.38
2023-04-28T14:16:33.771Z,11.32
2023-04-28T14:19:01.697Z,11.52
2023-04-28T14:21:29.164Z,13.07
2023-04-28T14:23:56.636Z,13.48
2023-04-28T14:26:25.180Z,11.13
2023-04-28T14:28:54.921Z,11.18
2023-04-28T14:31:22.396Z,11.63
2023-04-28T14:33:49.940Z,11.93
2023-04-28T14:36:17.400Z,12.70
2023-04-28T14:38:44.866Z,11.90
2023-04-28T14:41:12.613Z,11.25
2023-04-28T14:43:40.095Z,11.77
2023-04-28T14:46:09.094Z,12.32
2023-04-28T14:48:37.643Z,11.80
2023-04-28T14:51:05.711Z,12.07
2023-04-28T14:53:33.211Z,11.45
2023-04-28T14:56:16.804Z,11.75
2023-04-28T14:58:45.890Z,11.75
2023-04-28T15:01:14.832Z,11.68
2023-04-28T15:03:42.610Z,12.27
2023-04-28T15:06:10.649Z,11.45
2023-04-28T15:08:38.139Z,12.30
2023-04-28T15:11:05.561Z,12.25
2023-04-28T15:13:33.174Z,12.63
2023-04-28T15:16:00.616Z,12.95
2023-04-28T15:18:29.511Z,12.48
2023-04-28T15:20:56.977Z,14.50
2023-04-28T15:23:24.419Z,14.02
2023-04-28T15:25:53.551Z,15.75
2023-04-28T15:28:22.048Z,13.82
2023-04-28T15:30:49.530Z,15.73
2023-04-28T15:33:18.518Z,16.52
2023-04-28T15:35:47.452Z,17.73
2023-04-28T15:38:14.946Z,18.55
2023-04-28T15:40:43.483Z,17.42
2023-04-28T15:43:11.058Z,17.17
2023-04-28T15:45:39.677Z,17.33
2023-04-28T15:48:07.573Z,24.75
2023-04-28T15:50:36.879Z,17.67
2023-04-28T15:53:05.697Z,21.08
2023-04-28T15:55:33.313Z,19.05
2023-04-28T15:58:01.248Z,18.95
2023-04-28T16:00:28.833Z,20.30
2023-04-28T16:02:56.610Z,20.77
2023-04-28T16:05:24.179Z,20.60
2023-04-28T16:07:52.765Z,19.90
2023-04-28T16:10:21.978Z,18.90
2023-04-28T16:12:49.529Z,19.05
2023-04-28T16:15:17.289Z,19.40
2023-04-28T16:17:44.999Z,18.42
2023-04-28T16:20:13.053Z,18.50
2023-04-28T16:22:41.612Z,18.77
2023-04-28T16:25:10.430Z,19.50
2023-04-28T16:27:40.011Z,16.98
2023-04-28T16:30:08.743Z,19.85
2023-04-28T16:32:38.215Z,19.17
2023-04-28T16:35:06.417Z,18.25
2023-04-28T16:37:36.242Z,17.65
2023-04-28T16:40:04.480Z,17.65
2023-04-28T16:42:32.137Z,16.92
2023-04-28T16:45:00.926Z,16.23
2023-04-28T16:47:31.098Z,16.25
2023-04-28T16:49:58.729Z,15.40
2023-04-28T16:52:27.173Z,14.23
2023-04-28T16:54:55.051Z,15.73
2023-04-28T16:57:22.681Z,15.30
2023-04-28T16:59:50.850Z,14.45
2023-04-28T17:02:19.962Z,15.05
2023-04-28T17:04:47.513Z,15.27
2023-04-28T17:07:15.112Z,15.35
2023-04-28T17:09:42.554Z,14.30
2023-04-28T17:12:10.009Z,14.70
2023-04-28T17:14:38.896Z,15.00
2023-04-28T17:17:06.529Z,15.20
2023-04-28T17:19:35.377Z,17.40
2023-04-28T17:22:03.770Z,17.48
2023-04-28T17:24:31.218Z,18.20
2023-04-28T17:26:58.840Z,19.25
2023-04-28T17:29:26.709Z,19.50
2023-04-28T17:31:54.443Z,20.23
2023-04-28T17:34:22.167Z,20.73
2023-04-28T17:36:51.121Z,25.20
2023-04-28T17:39:19.176Z,23.85
2023-04-28T17:41:47.301Z,26.75
2023-04-28T17:44:14.751Z,35.00
2023-04-28T17:46:42.233Z,27.27
2023-04-28T17:49:09.712Z,24.27
2023-04-28T17:51:37.968Z,24.27
2023-04-28T17:54:09.362Z,25.98
2023-04-28T17:56:37.745Z,34.65
2023-04-28T17:59:05.886Z,26.80
2023-04-28T18:01:33.983Z,41.78
2023-04-28T18:04:01.645Z,48.50
2023-04-28T18:06:29.896Z,41.55
2023-04-28T18:08:57.408Z,30.58
2023-04-28T18:11:27.837Z,91.18
2023-04-28T18:13:55.336Z,108.28
2023-04-28T18:16:22.855Z,95.65
2023-04-28T18:18:50.679Z,63.53
2023-04-28T18:21:18.270Z,94.65
2023-04-28T18:23:46.525Z,104.90
2023-04-28T18:26:14.003Z,77.80
2023-04-28T18:28:42.927Z,72.82
2023-04-28T18:31:10.438Z,63.42
2023-04-28T18:33:37.923Z,52.42
2023-04-28T18:36:07.356Z,52.03
2023-04-28T18:38:36.482Z,36.97
2023-04-28T18:41:14.766Z,43.08
2023-04-28T18:43:44.784Z,58.13
2023-04-28T18:46:12.292Z,30.38
2023-04-28T18:48:40.022Z,96.05
2023-04-28T18:51:07.700Z,231.43
2023-04-28T18:53:36.821Z,272.13
2023-04-28T18:56:04.784Z,331.65
2023-04-28T18:58:32.690Z,225.57
2023-04-28T19:01:01.558Z,226.38
2023-04-28T19:03:30.259Z,208.13
2023-04-28T19:05:57.827Z,138.70
2023-04-28T19:08:25.263Z,178.73
2023-04-28T19:10:52.725Z,98.20
2023-04-28T19:13:20.185Z,59.72
2023-04-28T19:15:47.717Z,47.92
2023-04-28T19:18:16.563Z,50.10
2023-04-28T19:20:44.016Z,41.25
2023-04-28T19:23:11.613Z,42.00
2023-04-28T19:25:39.260Z,37.42
2023-04-28T19:28:06.813Z,37.75
2023-04-28T19:30:34.350Z,37.03
2023-04-28T19:33:01.969Z,26.92
2023-04-28T19:35:30.777Z,26.48
2023-04-28T19:37:58.225Z,25.45
2023-04-28T19:40:26.301Z,16.65
2023-04-28T19:42:55.429Z,13.27
2023-04-28T19:45:23.167Z,10.63
2023-04-28T19:47:51.811Z,10.57
2023-04-28T19:50:19.672Z,9.82
2023-04-28T19:52:48.472Z,9.57
2023-04-28T19:55:19.925Z,9.68
2023-04-28T19:57:47.495Z,8.23
2023-04-28T20:00:15.340Z,10.02
2023-04-28T20:02:44.311Z,9.60
2023-04-28T20:05:12.234Z,9.30
2023-04-28T20:07:39.754Z,8.80
2023-04-28T20:10:09.542Z,9.75
2023-04-28T20:12:37.017Z,8.75
2023-04-28T20:15:04.969Z,7.72
2023-04-28T20:17:32.492Z,8.10
2023-04-28T20:20:00.208Z,8.60
2023-04-28T20:22:27.777Z,8.13
2023-04-28T20:24:56.285Z,8.65
2023-04-28T20:27:25.064Z,8.80
2023-04-28T20:29:52.636Z,9.15
2023-04-28T20:32:20.632Z,8.52
2023-04-28T20:34:48.098Z,8.45
2023-04-28T20:37:15.550Z,8.68
2023-04-28T20:39:42.983Z,8.05
2023-04-28T20:42:10.657Z,7.22
2023-04-28T20:44:40.883Z,7.55
2023-04-28T20:47:08.399Z,7.55
2023-04-28T20:49:36.085Z,8.23
2023-04-28T20:52:04.755Z,9.05
2023-04-28T20:54:33.511Z,10.95
2023-04-28T20:57:01.712Z,9.27
2023-04-28T20:59:32.198Z,10.10
2023-04-28T21:02:01.361Z,10.60
2023-04-28T21:04:28.902Z,11.15
2023-04-28T21:06:56.432Z,11.00
2023-04-28T21:09:24.938Z,12.60
2023-04-28T21:11:52.621Z,10.27
2023-04-28T21:14:20.310Z,9.95
2023-04-28T21:16:47.818Z,9.95
2023-04-28T21:19:17.304Z,9.88
2023-04-28T21:21:44.977Z,10.55
2023-04-28T21:24:12.607Z,10.40
2023-04-28T21:26:40.657Z,11.13
2023-04-28T21:29:09.229Z,12.38
2023-04-28T21:31:37.232Z,16.02
2023-04-28T21:34:04.783Z,13.40
2023-04-28T21:36:34.357Z,13.60
2023-04-28T21:39:01.842Z,13.05
2023-04-28T21:41:29.306Z,14.43
2023-04-28T21:43:56.779Z,14.27
2023-04-28T21:46:24.264Z,16.15
2023-04-28T21:48:51.715Z,13.88
2023-04-28T21:51:19.221Z,17.42
2023-04-28T21:53:48.033Z,13.43
2023-04-28T21:56:17.145Z,12.38
2023-04-28T21:58:44.998Z,12.77
2023-04-28T22:01:15.276Z,13.30
2023-04-28T22:03:42.945Z,13.10
2023-04-28T22:06:10.613Z,13.77
2023-04-28T22:08:38.341Z,13.73
2023-04-28T22:11:07.180Z,13.38
2023-04-28T22:13:34.875Z,13.88
2023-04-28T22:16:02.776Z,14.57
2023-04-28T22:18:30.422Z,14.70
2023-04-28T22:20:57.988Z,15.00
2023-04-28T22:23:25.871Z,14.98
2023-04-28T22:25:53.323Z,17.30
2023-04-28T22:28:22.571Z,17.75
2023-04-28T22:30:50.044Z,19.60
2023-04-28T22:33:17.534Z,16.95
2023-04-28T22:35:44.976Z,14.32
2023-04-28T22:38:12.455Z,12.38
2023-04-28T22:40:39.894Z,12.50
2023-04-28T22:43:07.350Z,12.10
2023-04-28T22:45:36.178Z,11.77
2023-04-28T22:48:03.878Z,11.98
2023-04-28T22:50:31.443Z,13.60
2023-04-28T22:52:58.907Z,12.38
2023-04-28T22:55:26.667Z,11.43
2023-04-28T22:57:54.122Z,12.80
2023-04-28T23:00:21.733Z,14.63
2023-04-28T23:02:50.628Z,14.48
2023-04-28T23:05:18.388Z,12.98
2023-04-28T23:07:45.936Z,14.13
2023-04-28T23:10:14.734Z,15.60
2023-04-28T23:12:42.276Z,15.00
2023-04-28T23:15:10.420Z,15.15
2023-04-28T23:17:37.947Z,14.02
2023-04-28T23:20:07.989Z,14.43
2023-04-28T23:22:35.430Z,16.27
2023-04-28T23:25:02.948Z,11.02
2023-04-28T23:27:30.379Z,12.13
2023-04-28T23:29:57.955Z,11.77
2023-04-28T23:32:25.538Z,10.88
2023-04-28T23:34:53.623Z,10.95
2023-04-28T23:37:22.456Z,11.63
2023-04-28T23:39:50.156Z,10.13
2023-04-28T23:42:17.870Z,11.02
2023-04-28T23:44:45.310Z,12.68
2023-04-28T23:47:13.815Z,12.55
2023-04-28T23:49:41.261Z,11.95
2023-04-28T23:52:08.694Z,13.90
2023-04-28T23:54:37.509Z,14.18
2023-04-28T23:57:05.265Z,15.60
2023-04-28T23:59:32.726Z,13.52
